Opal Express — V7KB8 — position and weather

sailwx.info

Track history (hours):
 
Tides and Currents Weather Stations Pressure Air Temp Water Temp Dewpoint Dewpoint Depression Visibility Wind Speed Wind Dir Waves Ship Positions

Opal Express

Last reported at 2017-Mar-12 17:23 UTC. Time now 2017-Mar-29 13:22 UTC.
Position N 09°13' W 079°55'.
Warning: this ship's position is 16 days out of date.

Length 179 m; draft 7.8 m.

Type: Tanker. MMSI: 538002500.

Date/timePositionNaut miles runAvg speedWind from/ knotsBaromVisibWave heightAir tempDewpointWater temp
2017-Mar-12 17:23N 09°13' W 079°55'3 4.0
2017-Mar-12 16:32N 09°16' W 079°55'0 0.4
2017-Mar-12 15:32N 09°17' W 079°55'0 0.5
2017-Mar-12 14:32N 09°17' W 079°55'4 4.4
2017-Mar-12 13:33N 09°21' W 079°55'1 1.2
2017-Mar-12 12:31N 09°23' W 079°56'0 0.0
2017-Mar-12 11:34N 09°23' W 079°56'0 0.0
2017-Mar-12 10:34N 09°23' W 079°56'0 0.0
2017-Mar-12 09:31N 09°23' W 079°56'0 0.0
2017-Mar-12 08:34N 09°23' W 079°56'0 0.0
2017-Mar-12 07:34N 09°23' W 079°56'0 0.0
2017-Mar-12 06:34N 09°23' W 079°56'0 0.0
2017-Mar-12 05:34N 09°23' W 079°56'0 0.0
2017-Mar-12 04:34N 09°23' W 079°56'0 0.0
2017-Mar-12 03:34N 09°23' W 079°56'0 0.0
2017-Mar-12 02:31N 09°23' W 079°56'0 0.0
2017-Mar-12 01:31N 09°23' W 079°56'0 0.0
2017-Mar-12 00:31N 09°23' W 079°56'0 0.0
2017-Mar-11 23:34N 09°23' W 079°56'0 0.0
2017-Mar-11 22:31N 09°23' W 079°56'0 0.1
2017-Mar-11 21:34N 09°23' W 079°56'0 0.0
2017-Mar-11 20:34N 09°23' W 079°56'0 0.1
2017-Mar-11 19:33N 09°23' W 079°56'4 3.6
2017-Mar-11 18:33N 09°26' W 079°56'0 0.1
2017-Mar-11 12:20N 09°26' W 079°56'  
2017-Mar-05 23:23N 29°31' W 094°53'1010.4
2017-Mar-05 22:26N 29°40' W 094°59'7 7.6
2017-Mar-05 21:33N 29°45' W 095°04'  
2017-Mar-03 14:33N 29°44' W 095°13'1 1.3
2017-Mar-03 13:33N 29°43' W 095°14'4 4.5
2017-Mar-03 12:33N 29°44' W 095°09'6 5.6
2017-Mar-03 11:33N 29°44' W 095°03'8 8.2
2017-Mar-03 10:33N 29°37' W 094°58'1111.4
2017-Mar-03 09:33N 29°28' W 094°51'  
Track history (hours):
 
Tides and Currents Weather Stations Pressure Air Temp Water Temp Dewpoint Dewpoint Depression Visibility Wind Speed Wind Dir Waves Ship Positions

Opal Express

Last reported at 2017-Mar-12 17:23 UTC. Time now 2017-Mar-29 13:22 UTC.
Position N 09°13' W 079°55'.
Warning: this ship's position is 16 days out of date.

Length 179 m; draft 7.8 m.

Type: Tanker. MMSI: 538002500.

Date/timePositionNaut miles runAvg speedWind from/ knotsBaromVisibWave heightAir tempDewpointWater temp
2017-Mar-12 17:23N 09°13' W 079°55'3 4.0
2017-Mar-12 16:32N 09°16' W 079°55'0 0.4
2017-Mar-12 15:32N 09°17' W 079°55'0 0.5
2017-Mar-12 14:32N 09°17' W 079°55'4 4.4
2017-Mar-12 13:33N 09°21' W 079°55'1 1.2
2017-Mar-12 12:31N 09°23' W 079°56'0 0.0
2017-Mar-12 11:34N 09°23' W 079°56'0 0.0
2017-Mar-12 10:34N 09°23' W 079°56'0 0.0
2017-Mar-12 09:31N 09°23' W 079°56'0 0.0
2017-Mar-12 08:34N 09°23' W 079°56'0 0.0
2017-Mar-12 07:34N 09°23' W 079°56'0 0.0
2017-Mar-12 06:34N 09°23' W 079°56'0 0.0
2017-Mar-12 05:34N 09°23' W 079°56'0 0.0
2017-Mar-12 04:34N 09°23' W 079°56'0 0.0
2017-Mar-12 03:34N 09°23' W 079°56'0 0.0
2017-Mar-12 02:31N 09°23' W 079°56'0 0.0
2017-Mar-12 01:31N 09°23' W 079°56'0 0.0
2017-Mar-12 00:31N 09°23' W 079°56'0 0.0
2017-Mar-11 23:34N 09°23' W 079°56'0 0.0
2017-Mar-11 22:31N 09°23' W 079°56'0 0.1
2017-Mar-11 21:34N 09°23' W 079°56'0 0.0
2017-Mar-11 20:34N 09°23' W 079°56'0 0.1
2017-Mar-11 19:33N 09°23' W 079°56'4 3.6
2017-Mar-11 18:33N 09°26' W 079°56'0 0.1
2017-Mar-11 12:20N 09°26' W 079°56'  
2017-Mar-05 23:23N 29°31' W 094°53'1010.4
2017-Mar-05 22:26N 29°40' W 094°59'7 7.6
2017-Mar-05 21:33N 29°45' W 095°04'  
2017-Mar-03 14:33N 29°44' W 095°13'1 1.3
2017-Mar-03 13:33N 29°43' W 095°14'4 4.5
2017-Mar-03 12:33N 29°44' W 095°09'6 5.6
2017-Mar-03 11:33N 29°44' W 095°03'8 8.2
2017-Mar-03 10:33N 29°37' W 094°58'1111.4
2017-Mar-03 09:33N 29°28' W 094°51'  

Dump ship's entire track history